createdAt,value
2022-11-15T00:01:12.258Z,19.38
2022-11-15T00:03:39.035Z,15.88
2022-11-15T00:06:06.209Z,21.38
2022-11-15T00:08:33.779Z,15.27
2022-11-15T00:11:02.728Z,15.07
2022-11-15T00:13:31.197Z,15.27
2022-11-15T00:16:00.649Z,20.63
2022-11-15T00:18:28.461Z,18.10
2022-11-15T00:20:55.490Z,19.33
2022-11-15T00:23:22.277Z,15.68
2022-11-15T00:25:56.481Z,17.20
2022-11-15T00:30:49.994Z,13.63
2022-11-15T00:33:16.785Z,14.25
2022-11-15T00:35:43.696Z,17.60
2022-11-15T00:38:10.476Z,15.75
2022-11-15T00:40:37.236Z,16.95
2022-11-15T00:43:04.029Z,17.48
2022-11-15T00:45:30.790Z,15.73
2022-11-15T00:47:57.589Z,14.73
2022-11-15T00:50:24.366Z,15.25
2022-11-15T00:52:51.126Z,16.52
2022-11-15T00:55:19.237Z,15.05
2022-11-15T00:57:47.476Z,18.67
2022-11-15T01:00:14.966Z,18.17
2022-11-15T01:02:41.758Z,14.63
2022-11-15T01:05:09.154Z,16.33
2022-11-15T01:07:36.255Z,16.95
2022-11-15T01:10:03.931Z,17.42
2022-11-15T01:12:30.803Z,14.40
2022-11-15T01:14:57.610Z,16.17
2022-11-15T01:17:24.762Z,13.07
2022-11-15T01:19:51.521Z,17.08
2022-11-15T01:22:18.442Z,14.32
2022-11-15T01:24:45.309Z,14.63
2022-11-15T01:27:12.073Z,16.60
2022-11-15T01:29:38.846Z,13.25
2022-11-15T01:32:05.697Z,14.85
2022-11-15T01:34:32.453Z,15.18
2022-11-15T01:36:59.745Z,13.48
2022-11-15T01:39:27.350Z,11.75
2022-11-15T01:41:54.615Z,13.35
2022-11-15T01:44:45.655Z,13.55
2022-11-15T01:47:30.530Z,11.60
2022-11-15T01:50:07.578Z,12.25
2022-11-15T01:52:36.215Z,11.23
2022-11-15T01:55:17.338Z,13.73
2022-11-15T01:57:48.092Z,15.52
2022-11-15T02:00:16.020Z,13.02
2022-11-15T02:02:42.872Z,11.10
2022-11-15T02:05:09.750Z,14.95
2022-11-15T02:07:37.446Z,12.48
2022-11-15T02:10:14.940Z,15.65
2022-11-15T02:12:42.484Z,12.65
2022-11-15T02:15:11.005Z,9.88
2022-11-15T02:18:03.359Z,14.27
2022-11-15T02:20:57.130Z,11.35
2022-11-15T02:24:11.077Z,12.45
2022-11-15T02:26:57.517Z,12.30
2022-11-15T02:30:13.861Z,9.15
2022-11-15T02:32:51.912Z,12.10
2022-11-15T02:35:30.197Z,10.45
2022-11-15T02:38:16.753Z,10.68
2022-11-15T02:41:02.880Z,10.07
2022-11-15T02:43:59.903Z,12.00
2022-11-15T02:47:00.551Z,11.40
2022-11-15T02:49:30.370Z,11.50
2022-11-15T02:51:57.450Z,18.27
2022-11-15T02:54:30.309Z,15.73
2022-11-15T02:57:17.944Z,12.02
2022-11-15T03:00:08.973Z,11.52
2022-11-15T03:03:13.200Z,15.10
2022-11-15T03:06:03.680Z,12.75
2022-11-15T03:08:33.853Z,13.27
2022-11-15T03:11:22.618Z,9.18
2022-11-15T03:14:01.959Z,9.98
2022-11-15T03:16:38.495Z,11.93
2022-11-15T03:19:20.557Z,11.00
2022-11-15T03:21:49.198Z,14.95
2022-11-15T03:24:25.650Z,10.43
2022-11-15T03:26:55.862Z,10.85
2022-11-15T03:29:29.855Z,14.68
2022-11-15T03:32:07.783Z,16.38
2022-11-15T03:34:52.121Z,14.88
2022-11-15T03:37:22.176Z,13.25
2022-11-15T03:39:48.945Z,12.52
2022-11-15T03:42:31.826Z,14.25
2022-11-15T03:45:30.124Z,12.00
2022-11-15T03:48:06.991Z,9.50
2022-11-15T03:50:34.480Z,9.23
2022-11-15T03:53:01.903Z,12.63
2022-11-15T03:55:28.693Z,11.25
2022-11-15T03:57:59.930Z,11.75
2022-11-15T04:00:27.419Z,11.65
2022-11-15T04:02:54.195Z,10.95
2022-11-15T04:05:20.959Z,11.80
2022-11-15T04:07:47.734Z,13.45
2022-11-15T04:10:14.955Z,8.40
2022-11-15T04:12:47.144Z,8.90
2022-11-15T04:15:21.724Z,10.50
2022-11-15T04:17:57.479Z,9.20
2022-11-15T04:20:46.546Z,10.32
2022-11-15T04:23:38.483Z,9.35
2022-11-15T04:26:12.738Z,8.77
2022-11-15T04:31:26.419Z,9.98
2022-11-15T04:33:53.825Z,9.95
2022-11-15T04:36:39.943Z,11.05
2022-11-15T04:39:06.711Z,9.85
2022-11-15T04:41:33.565Z,10.95
2022-11-15T04:44:00.430Z,11.52
2022-11-15T04:46:27.522Z,10.30
2022-11-15T04:48:58.613Z,8.50
2022-11-15T04:51:26.485Z,7.95
2022-11-15T04:53:53.450Z,10.30
2022-11-15T04:56:20.380Z,10.18
2022-11-15T04:58:50.578Z,13.18
2022-11-15T05:01:17.692Z,10.80
2022-11-15T05:04:04.121Z,12.10
2022-11-15T05:06:31.211Z,8.73
2022-11-15T05:08:58.720Z,9.48
2022-11-15T05:11:26.316Z,14.48
2022-11-15T05:13:53.125Z,9.80
2022-11-15T05:16:20.213Z,10.88
2022-11-15T05:18:47.036Z,8.98
2022-11-15T05:21:15.870Z,12.35
2022-11-15T05:23:42.864Z,9.60
2022-11-15T05:26:11.137Z,10.77
2022-11-15T05:28:39.092Z,8.25
2022-11-15T05:31:11.642Z,8.70
2022-11-15T05:33:41.209Z,9.35
2022-11-15T05:36:37.592Z,10.18
2022-11-15T05:39:08.912Z,9.65
2022-11-15T05:41:51.339Z,9.57
2022-11-15T05:44:22.296Z,9.10
2022-11-15T05:46:50.408Z,10.10
2022-11-15T05:49:21.274Z,8.52
2022-11-15T05:51:49.361Z,9.35
2022-11-15T05:54:17.294Z,7.25
2022-11-15T05:56:44.849Z,7.47
2022-11-15T05:59:12.597Z,10.27
2022-11-15T06:01:40.644Z,10.75
2022-11-15T06:04:07.741Z,8.20
2022-11-15T06:06:34.562Z,8.70
2022-11-15T06:09:01.367Z,7.35
2022-11-15T06:11:28.914Z,11.90
2022-11-15T06:13:55.758Z,10.05
2022-11-15T06:16:22.565Z,7.13
2022-11-15T06:18:49.389Z,9.43
2022-11-15T06:21:16.171Z,8.02
2022-11-15T06:23:42.971Z,5.78
2022-11-15T06:26:09.748Z,6.72
2022-11-15T06:28:36.569Z,9.90
2022-11-15T06:31:08.956Z,10.07
2022-11-15T06:33:35.925Z,8.05
2022-11-15T06:36:13.225Z,7.35
2022-11-15T06:38:45.345Z,5.20
2022-11-15T06:41:14.307Z,6.50
2022-11-15T06:43:41.736Z,6.75
2022-11-15T06:46:08.930Z,9.15
2022-11-15T06:48:37.076Z,9.25
2022-11-15T06:51:05.810Z,14.07
2022-11-15T06:53:33.318Z,5.13
2022-11-15T06:56:06.625Z,7.10
2022-11-15T06:58:33.948Z,6.00
2022-11-15T07:01:10.502Z,6.97
2022-11-15T07:03:43.125Z,6.50
2022-11-15T07:06:10.658Z,6.97
2022-11-15T07:08:38.370Z,6.75
2022-11-15T07:11:09.441Z,6.78
2022-11-15T07:13:38.056Z,5.50
2022-11-15T07:16:07.772Z,8.95
2022-11-15T07:18:39.755Z,6.32
2022-11-15T07:21:09.799Z,12.68
2022-11-15T07:23:40.410Z,7.63
2022-11-15T07:26:08.536Z,9.25
2022-11-15T07:28:35.933Z,8.30
2022-11-15T07:31:06.079Z,6.50
2022-11-15T07:33:33.765Z,6.68
2022-11-15T07:36:06.008Z,7.20
2022-11-15T07:38:38.150Z,7.85
2022-11-15T07:41:08.165Z,11.20
2022-11-15T07:43:35.265Z,6.28
2022-11-15T07:46:10.320Z,7.82
2022-11-15T07:48:44.572Z,7.63
2022-11-15T07:51:17.014Z,7.40
2022-11-15T07:53:44.738Z,6.13
2022-11-15T07:56:12.058Z,5.95
2022-11-15T07:58:38.839Z,7.20
2022-11-15T08:01:11.014Z,8.70
2022-11-15T08:03:38.313Z,3.92
2022-11-15T08:06:05.575Z,9.90
2022-11-15T08:08:32.367Z,4.68
2022-11-15T08:10:59.823Z,8.10
2022-11-15T08:13:26.662Z,8.63
2022-11-15T08:15:58.859Z,4.90
2022-11-15T08:18:25.649Z,9.80
2022-11-15T08:20:52.445Z,6.60
2022-11-15T08:23:19.377Z,4.57
2022-11-15T08:25:46.137Z,6.20
2022-11-15T08:28:12.954Z,6.82
2022-11-15T08:30:43.118Z,6.90
2022-11-15T08:33:14.912Z,4.05
2022-11-15T08:35:43.436Z,7.55
2022-11-15T08:38:10.639Z,6.97
2022-11-15T08:40:37.978Z,8.40
2022-11-15T08:43:05.133Z,6.60
2022-11-15T08:45:32.465Z,6.30
2022-11-15T08:48:04.199Z,6.30
2022-11-15T08:50:31.054Z,7.28
2022-11-15T08:52:58.047Z,5.25
2022-11-15T08:55:25.197Z,5.18
2022-11-15T08:57:52.231Z,4.10
2022-11-15T09:00:20.766Z,7.90
2022-11-15T09:02:47.777Z,6.13
2022-11-15T09:05:16.057Z,5.80
2022-11-15T09:07:42.868Z,4.28
2022-11-15T09:10:09.838Z,7.22
2022-11-15T09:12:36.647Z,7.07
2022-11-15T09:15:04.824Z,5.10
2022-11-15T09:17:31.613Z,5.72
2022-11-15T09:19:58.416Z,4.75
2022-11-15T09:22:25.225Z,4.80
2022-11-15T09:24:52.028Z,6.07
2022-11-15T09:27:18.834Z,7.50
2022-11-15T09:29:45.598Z,4.43
2022-11-15T09:32:12.449Z,6.47
2022-11-15T09:34:39.203Z,5.75
2022-11-15T09:37:05.967Z,5.35
2022-11-15T09:39:32.839Z,5.70
2022-11-15T09:42:27.150Z,4.00
2022-11-15T09:45:09.997Z,6.82
2022-11-15T09:47:58.632Z,6.43
2022-11-15T09:50:50.086Z,3.80
2022-11-15T09:54:23.726Z,3.38
2022-11-15T09:56:34.385Z,6.65
2022-11-15T09:59:39.096Z,3.72
2022-11-15T10:02:08.581Z,5.90
2022-11-15T10:04:37.971Z,6.40
2022-11-15T10:07:19.796Z,6.65
2022-11-15T10:09:57.930Z,6.13
2022-11-15T10:12:28.094Z,4.43
2022-11-15T10:15:16.201Z,13.10
2022-11-15T10:18:00.370Z,6.55
2022-11-15T10:20:30.925Z,6.93
2022-11-15T10:23:02.210Z,3.28
2022-11-15T10:25:32.427Z,5.85
2022-11-15T10:28:07.621Z,5.22
2022-11-15T10:30:42.210Z,9.00
2022-11-15T10:33:30.764Z,4.80
2022-11-15T10:36:09.854Z,5.43
2022-11-15T10:38:51.951Z,8.43
2022-11-15T10:41:30.323Z,5.15
2022-11-15T10:44:18.076Z,6.00
2022-11-15T10:46:51.421Z,3.95
2022-11-15T10:49:30.849Z,5.28
2022-11-15T10:52:18.062Z,3.38
2022-11-15T10:54:53.094Z,4.55
2022-11-15T10:57:30.980Z,4.75
2022-11-15T11:00:02.429Z,6.10
2022-11-15T11:02:58.315Z,4.78
2022-11-15T11:05:39.912Z,5.13
2022-11-15T11:08:11.894Z,8.43
2022-11-15T11:10:51.698Z,3.25
2022-11-15T11:13:30.115Z,7.57
2022-11-15T11:16:15.061Z,3.78
2022-11-15T11:19:19.546Z,8.18
2022-11-15T11:22:28.062Z,4.63
2022-11-15T11:25:30.120Z,2.97
2022-11-15T11:28:10.414Z,7.80
2022-11-15T11:30:48.954Z,3.15
2022-11-15T11:33:31.268Z,5.72
2022-11-15T11:36:16.713Z,4.97
2022-11-15T11:39:29.044Z,3.17
2022-11-15T11:43:00.263Z,3.00
2022-11-15T11:45:47.185Z,5.82
2022-11-15T11:48:24.695Z,3.72
2022-11-15T11:50:51.492Z,5.82
2022-11-15T11:53:40.976Z,6.63
2022-11-15T11:56:30.733Z,3.17
2022-11-15T11:59:08.782Z,2.80
2022-11-15T12:01:42.936Z,3.63
2022-11-15T12:04:42.930Z,3.05
2022-11-15T12:07:18.789Z,7.40
2022-11-15T12:10:04.300Z,2.13
2022-11-15T12:13:08.072Z,2.72
2022-11-15T12:15:46.347Z,10.13
2022-11-15T12:18:16.871Z,3.65
2022-11-15T12:20:56.494Z,3.92
2022-11-15T12:23:35.987Z,3.00
2022-11-15T12:26:24.692Z,3.47
2022-11-15T12:29:07.969Z,5.78
2022-11-15T12:31:35.592Z,3.28
2022-11-15T12:34:20.615Z,6.53
2022-11-15T12:36:49.525Z,2.58
2022-11-15T12:39:18.168Z,2.35
2022-11-15T12:42:05.256Z,2.60
2022-11-15T12:44:31.977Z,2.80
2022-11-15T12:46:58.645Z,2.90
2022-11-15T12:49:28.007Z,3.83
2022-11-15T12:51:57.757Z,1.98
2022-11-15T12:54:24.388Z,3.45
2022-11-15T12:57:07.947Z,3.28
2022-11-15T12:59:58.671Z,3.08
2022-11-15T13:02:36.384Z,5.57
2022-11-15T13:05:35.698Z,5.30
2022-11-15T13:08:02.499Z,2.50
2022-11-15T13:10:34.478Z,1.38
2022-11-15T13:13:09.511Z,4.45
2022-11-15T13:15:53.956Z,2.30
2022-11-15T13:18:37.022Z,2.78
2022-11-15T13:21:39.241Z,6.82
2022-11-15T13:24:11.944Z,5.90
2022-11-15T13:26:41.018Z,5.07
2022-11-15T13:29:20.251Z,2.30
2022-11-15T13:31:48.109Z,3.70
2022-11-15T13:34:50.971Z,3.58
2022-11-15T13:37:21.952Z,2.45
2022-11-15T13:39:50.379Z,6.10
2022-11-15T13:42:19.915Z,5.88
2022-11-15T13:45:04.744Z,2.15
2022-11-15T13:47:32.669Z,2.80
2022-11-15T13:50:01.848Z,2.55
2022-11-15T13:52:34.516Z,2.60
2022-11-15T13:55:22.529Z,5.10
2022-11-15T13:58:00.334Z,3.20
2022-11-15T14:00:40.108Z,2.10
2022-11-15T14:03:32.362Z,2.95
2022-11-15T14:06:08.589Z,2.30
2022-11-15T14:08:36.731Z,3.00
2022-11-15T14:11:09.613Z,1.80
2022-11-15T14:13:37.115Z,4.00
2022-11-15T14:16:20.338Z,2.67
2022-11-15T14:18:53.780Z,2.28
2022-11-15T14:21:21.467Z,4.05
2022-11-15T14:23:49.925Z,4.20
2022-11-15T14:26:34.961Z,2.90
2022-11-15T14:29:33.708Z,2.65
2022-11-15T14:32:23.396Z,4.25
2022-11-15T14:34:59.222Z,2.20
2022-11-15T14:37:35.778Z,3.17
2022-11-15T14:40:06.041Z,2.15
2022-11-15T14:42:33.178Z,1.80
2022-11-15T14:44:59.965Z,2.50
2022-11-15T14:47:26.736Z,3.05
2022-11-15T14:49:53.612Z,3.00
2022-11-15T14:52:32.891Z,1.90
2022-11-15T14:55:00.492Z,2.58
2022-11-15T14:57:27.319Z,3.58
2022-11-15T14:59:54.211Z,3.55
2022-11-15T15:02:25.423Z,3.13
2022-11-15T15:04:52.820Z,5.00
2022-11-15T15:07:20.625Z,3.60
2022-11-15T15:09:47.910Z,2.38
2022-11-15T15:12:24.077Z,4.68
2022-11-15T15:14:51.753Z,8.48
2022-11-15T15:17:19.042Z,3.78
2022-11-15T15:19:46.015Z,4.65
2022-11-15T15:22:26.400Z,4.93
2022-11-15T15:24:53.143Z,5.28
2022-11-15T15:27:19.952Z,4.80
2022-11-15T15:29:46.950Z,3.60
2022-11-15T15:32:14.362Z,3.92
2022-11-15T15:34:41.445Z,4.28
2022-11-15T15:37:25.177Z,19.90
2022-11-15T15:39:57.073Z,9.63
2022-11-15T15:42:24.586Z,6.20
2022-11-15T15:44:52.237Z,4.85
2022-11-15T15:47:24.126Z,5.72
2022-11-15T15:49:51.852Z,6.20
2022-11-15T15:52:19.157Z,4.28
2022-11-15T15:54:46.205Z,6.80
2022-11-15T15:57:14.365Z,5.13
2022-11-15T15:59:41.576Z,6.22
2022-11-15T16:02:13.633Z,5.82
2022-11-15T16:04:41.167Z,4.25
2022-11-15T16:07:21.468Z,4.53
2022-11-15T16:10:03.539Z,4.22
2022-11-15T16:12:35.783Z,4.68
2022-11-15T16:15:04.157Z,5.28
2022-11-15T16:17:38.679Z,5.13
2022-11-15T16:20:06.290Z,6.20
2022-11-15T16:22:33.108Z,5.88
2022-11-15T16:24:59.920Z,7.63
2022-11-15T16:27:26.693Z,5.63
2022-11-15T16:29:53.452Z,6.38
2022-11-15T16:32:20.274Z,7.25
2022-11-15T16:34:49.173Z,6.68
2022-11-15T16:37:25.798Z,5.70
2022-11-15T16:39:54.867Z,6.40
2022-11-15T16:42:25.221Z,6.60
2022-11-15T16:44:51.989Z,4.55
2022-11-15T16:47:20.009Z,5.10
2022-11-15T16:49:47.511Z,6.15
2022-11-15T16:52:18.764Z,6.35
2022-11-15T16:54:47.905Z,7.88
2022-11-15T16:57:14.672Z,7.53
2022-11-15T16:59:41.582Z,6.35
2022-11-15T17:02:15.029Z,9.05
2022-11-15T17:04:41.967Z,5.87
2022-11-15T17:07:09.224Z,9.00
2022-11-15T17:09:36.061Z,7.25
2022-11-15T17:12:02.851Z,6.85
2022-11-15T17:14:29.833Z,7.90
2022-11-15T17:16:56.647Z,6.30
2022-11-15T17:19:23.434Z,7.60
2022-11-15T17:21:50.543Z,6.78
2022-11-15T17:24:17.949Z,10.00
2022-11-15T17:26:44.815Z,9.50
2022-11-15T17:29:11.734Z,11.85
2022-11-15T17:31:39.142Z,16.60
2022-11-15T17:34:07.287Z,14.85
2022-11-15T17:36:34.960Z,8.65
2022-11-15T17:39:02.693Z,10.98
2022-11-15T17:41:29.841Z,9.18
2022-11-15T17:43:59.642Z,6.00
2022-11-15T17:46:28.063Z,10.63
2022-11-15T17:48:56.750Z,10.65
2022-11-15T17:51:24.178Z,8.10
2022-11-15T17:53:51.722Z,6.75
2022-11-15T17:56:22.875Z,7.25
2022-11-15T17:58:57.191Z,9.80
2022-11-15T18:01:30.722Z,8.00
2022-11-15T18:04:00.528Z,7.20
2022-11-15T18:06:32.703Z,7.22
2022-11-15T18:09:00.346Z,7.28
2022-11-15T18:11:50.460Z,8.40
2022-11-15T18:14:19.112Z,7.00
2022-11-15T18:16:46.126Z,7.85
2022-11-15T18:19:13.698Z,7.30
2022-11-15T18:21:58.871Z,6.57
2022-11-15T18:24:30.125Z,6.50
2022-11-15T18:26:58.772Z,8.48
2022-11-15T18:29:25.893Z,6.07
2022-11-15T18:31:56.876Z,8.45
2022-11-15T18:34:33.344Z,8.45
2022-11-15T18:37:02.887Z,7.25
2022-11-15T18:39:30.249Z,6.85
2022-11-15T18:41:57.331Z,11.18
2022-11-15T18:44:24.200Z,9.98
2022-11-15T18:46:51.064Z,6.45
2022-11-15T18:49:19.730Z,7.03
2022-11-15T18:51:47.443Z,6.88
2022-11-15T18:54:16.422Z,7.88
2022-11-15T18:56:46.937Z,7.65
2022-11-15T18:59:14.896Z,6.30
2022-11-15T19:01:46.455Z,5.70
2022-11-15T19:04:18.316Z,7.88
2022-11-15T19:06:48.061Z,7.95
2022-11-15T19:09:17.309Z,7.43
2022-11-15T19:11:46.943Z,7.55
2022-11-15T19:14:16.411Z,7.18
2022-11-15T19:16:49.822Z,8.05
2022-11-15T19:19:20.416Z,8.43
2022-11-15T19:21:47.822Z,8.15
2022-11-15T19:24:15.308Z,7.05
2022-11-15T19:26:42.580Z,6.35
2022-11-15T19:29:10.601Z,6.25
2022-11-15T19:31:38.183Z,6.22
2022-11-15T19:34:06.806Z,6.55
2022-11-15T19:36:44.575Z,7.20
2022-11-15T19:39:14.917Z,4.95
2022-11-15T19:41:43.736Z,7.60
2022-11-15T19:44:12.120Z,5.55
2022-11-15T19:46:39.514Z,9.25
2022-11-15T19:49:11.034Z,5.32
2022-11-15T19:51:41.632Z,8.65
2022-11-15T19:54:09.728Z,8.30
2022-11-15T19:56:37.347Z,5.53
2022-11-15T19:59:05.029Z,12.48
2022-11-15T20:01:36.319Z,6.88
2022-11-15T20:04:03.634Z,8.48
2022-11-15T20:06:41.190Z,5.75
2022-11-15T20:09:11.367Z,4.30
2022-11-15T20:11:39.348Z,5.93
2022-11-15T20:14:07.814Z,7.25
2022-11-15T20:16:34.806Z,6.40
2022-11-15T20:19:01.786Z,6.75
2022-11-15T20:21:28.579Z,7.65
2022-11-15T20:23:56.320Z,8.30
2022-11-15T20:26:23.641Z,5.88
2022-11-15T20:28:50.453Z,7.13
2022-11-15T20:31:17.943Z,7.13
2022-11-15T20:33:44.870Z,5.53
2022-11-15T20:36:14.422Z,5.20
2022-11-15T20:38:41.544Z,8.75
2022-11-15T20:41:14.234Z,7.72
2022-11-15T20:43:43.312Z,10.38
2022-11-15T20:46:12.032Z,7.20
2022-11-15T20:48:39.751Z,6.60
2022-11-15T20:51:16.081Z,6.22
2022-11-15T20:53:44.940Z,5.30
2022-11-15T20:56:15.192Z,6.28
2022-11-15T20:58:43.247Z,5.80
2022-11-15T21:01:14.971Z,6.80
2022-11-15T21:03:42.230Z,5.00
2022-11-15T21:06:10.391Z,10.60
2022-11-15T21:08:55.988Z,5.25
2022-11-15T21:11:43.084Z,5.93
2022-11-15T21:14:10.025Z,6.90
2022-11-15T21:16:37.976Z,7.47
2022-11-15T21:19:06.513Z,7.53
2022-11-15T21:21:34.041Z,5.57
2022-11-15T21:24:04.469Z,5.93
2022-11-15T21:26:31.360Z,6.40
2022-11-15T21:28:58.164Z,6.50
2022-11-15T21:31:24.985Z,10.32
2022-11-15T21:33:51.734Z,6.15
2022-11-15T21:36:18.579Z,5.65
2022-11-15T21:38:45.343Z,7.60
2022-11-15T21:41:12.125Z,5.60
2022-11-15T21:43:38.893Z,7.00
2022-11-15T21:46:06.943Z,6.55
2022-11-15T21:48:35.679Z,5.55
2022-11-15T21:51:05.971Z,4.95
2022-11-15T21:53:33.958Z,9.85
2022-11-15T21:56:01.745Z,9.77
2022-11-15T21:58:29.265Z,5.72
2022-11-15T22:01:15.183Z,7.20
2022-11-15T22:03:42.740Z,7.18
2022-11-15T22:06:16.028Z,7.30
2022-11-15T22:08:45.594Z,5.03
2022-11-15T22:11:12.528Z,7.65
2022-11-15T22:13:39.317Z,5.68
2022-11-15T22:16:07.926Z,5.57
2022-11-15T22:18:35.552Z,4.93
2022-11-15T22:21:09.910Z,6.57
2022-11-15T22:23:37.236Z,9.05
2022-11-15T22:26:05.318Z,5.60
2022-11-15T22:28:32.539Z,6.57
2022-11-15T22:31:00.224Z,8.32
2022-11-15T22:33:29.773Z,6.72
2022-11-15T22:35:57.504Z,5.93
2022-11-15T22:38:24.985Z,7.25
2022-11-15T22:40:51.853Z,5.82
2022-11-15T22:43:22.973Z,6.88
2022-11-15T22:45:49.749Z,6.05
2022-11-15T22:48:16.827Z,6.80
2022-11-15T22:50:44.480Z,6.15
2022-11-15T22:53:11.894Z,7.05
2022-11-15T22:55:42.043Z,5.50
2022-11-15T22:58:09.035Z,6.75
2022-11-15T23:00:36.411Z,8.88
2022-11-15T23:03:04.166Z,6.20
2022-11-15T23:05:30.952Z,6.35
2022-11-15T23:07:57.884Z,6.32
2022-11-15T23:11:02.902Z,6.05
2022-11-15T23:13:32.011Z,6.85
2022-11-15T23:16:25.492Z,6.35
2022-11-15T23:18:57.448Z,7.82
2022-11-15T23:21:46.618Z,6.97
2022-11-15T23:24:15.057Z,11.40
2022-11-15T23:26:43.512Z,10.68
2022-11-15T23:29:14.067Z,8.30
2022-11-15T23:32:02.333Z,6.75
2022-11-15T23:34:31.357Z,7.10
2022-11-15T23:36:58.887Z,5.60
2022-11-15T23:39:25.715Z,10.55
2022-11-15T23:41:52.538Z,6.82
2022-11-15T23:44:19.328Z,6.40
2022-11-15T23:46:46.118Z,7.30
2022-11-15T23:49:13.007Z,9.73
2022-11-15T23:51:39.829Z,6.35
2022-11-15T23:54:07.456Z,5.85
2022-11-15T23:56:34.642Z,5.97
2022-11-15T23:59:01.657Z,7.50
